createdAt,value
2022-11-21T00:00:03.293Z,0.32
2022-11-21T00:02:33.765Z,0.30
2022-11-21T00:05:04.015Z,0.30
2022-11-21T00:07:34.329Z,0.30
2022-11-21T00:10:04.489Z,0.40
2022-11-21T00:12:34.718Z,0.30
2022-11-21T00:15:04.867Z,0.38
2022-11-21T00:17:35.117Z,0.35
2022-11-21T00:20:05.286Z,0.32
2022-11-21T00:22:35.566Z,0.30
2022-11-21T00:25:06.435Z,0.30
2022-11-21T00:27:36.671Z,0.20
2022-11-21T00:30:08.531Z,0.35
2022-11-21T00:32:38.780Z,0.30
2022-11-21T00:35:09.457Z,0.40
2022-11-21T00:37:39.782Z,0.30
2022-11-21T00:40:10.484Z,0.30
2022-11-21T00:42:40.767Z,0.55
2022-11-21T00:45:11.451Z,0.40
2022-11-21T00:47:41.667Z,0.40
2022-11-21T00:50:13.026Z,0.40
2022-11-21T00:52:43.211Z,0.40
2022-11-21T00:55:13.518Z,0.52
2022-11-21T00:57:45.274Z,0.10
2022-11-21T01:00:16.726Z,0.25
2022-11-21T01:02:47.139Z,0.30
2022-11-21T01:05:17.702Z,0.30
2022-11-21T01:07:50.106Z,0.50
2022-11-21T01:10:20.429Z,0.22
2022-11-21T01:12:50.642Z,0.30
2022-11-21T01:15:21.113Z,0.35
2022-11-21T01:17:51.432Z,0.40
2022-11-21T01:20:21.676Z,0.40
2022-11-21T01:22:51.956Z,0.32
2022-11-21T01:25:22.196Z,0.30
2022-11-21T01:27:52.358Z,0.30
2022-11-21T01:30:22.617Z,0.45
2022-11-21T01:32:52.894Z,0.30
2022-11-21T01:35:23.201Z,0.50
2022-11-21T01:37:53.356Z,0.28
2022-11-21T01:40:23.570Z,0.40
2022-11-21T01:43:16.747Z,0.30
2022-11-21T01:46:09.990Z,0.52
2022-11-21T01:49:01.405Z,0.38
2022-11-21T01:51:39.164Z,0.28
2022-11-21T01:54:35.732Z,0.35
2022-11-21T01:57:15.643Z,0.30
2022-11-21T01:59:52.045Z,0.30
2022-11-21T02:02:26.585Z,0.57
2022-11-21T02:04:58.112Z,0.82
2022-11-21T02:07:31.234Z,0.50
2022-11-21T02:10:03.965Z,0.80
2022-11-21T02:12:46.237Z,0.50
2022-11-21T02:15:16.720Z,0.45
2022-11-21T02:17:46.954Z,0.55
2022-11-21T02:20:20.070Z,0.35
2022-11-21T02:22:57.488Z,0.50
2022-11-21T02:25:31.562Z,0.50
2022-11-21T02:28:10.150Z,0.40
2022-11-21T02:30:42.495Z,0.63
2022-11-21T02:33:13.639Z,0.40
2022-11-21T02:35:44.302Z,0.40
2022-11-21T02:38:27.724Z,0.38
2022-11-21T02:41:09.920Z,0.35
2022-11-21T02:43:59.387Z,0.25
2022-11-21T02:46:31.323Z,0.30
2022-11-21T02:49:01.817Z,0.40
2022-11-21T02:51:32.059Z,0.30
2022-11-21T02:54:02.324Z,0.45
2022-11-21T02:56:32.808Z,0.50
2022-11-21T02:59:03.362Z,0.30
2022-11-21T03:01:33.669Z,0.43
2022-11-21T03:04:04.011Z,0.30
2022-11-21T03:06:34.263Z,0.50
2022-11-21T03:09:04.464Z,0.50
2022-11-21T03:11:34.660Z,0.55
2022-11-21T03:14:04.830Z,0.40
2022-11-21T03:16:35.162Z,0.70
2022-11-21T03:19:05.741Z,0.47
2022-11-21T03:21:35.992Z,0.75
2022-11-21T03:24:06.361Z,0.38
2022-11-21T03:26:39.811Z,0.30
2022-11-21T03:29:10.240Z,0.60
2022-11-21T03:31:40.636Z,0.40
2022-11-21T03:34:11.009Z,0.30
2022-11-21T03:36:41.239Z,0.50
2022-11-21T03:39:11.628Z,0.30
2022-11-21T03:41:41.909Z,0.40
2022-11-21T03:44:14.343Z,0.50
2022-11-21T03:46:47.002Z,0.40
2022-11-21T03:49:18.595Z,0.57
2022-11-21T03:51:48.892Z,0.40
2022-11-21T03:54:19.111Z,0.55
2022-11-21T03:56:49.392Z,0.73
2022-11-21T03:59:19.984Z,0.40
2022-11-21T04:01:50.976Z,0.40
2022-11-21T04:04:22.446Z,0.32
2022-11-21T04:06:52.639Z,0.38
2022-11-21T04:09:22.880Z,0.70
2022-11-21T04:11:53.178Z,0.57
2022-11-21T04:14:23.340Z,0.65
2022-11-21T04:16:53.666Z,0.57
2022-11-21T04:19:23.810Z,0.50
2022-11-21T04:21:54.053Z,0.65
2022-11-21T04:24:24.250Z,0.40
2022-11-21T04:26:56.127Z,0.50
2022-11-21T04:29:26.553Z,0.47
2022-11-21T04:31:56.866Z,0.57
2022-11-21T04:34:27.555Z,0.85
2022-11-21T04:36:58.045Z,0.60
2022-11-21T04:39:28.292Z,0.30
2022-11-21T04:41:58.486Z,0.70
2022-11-21T04:44:30.362Z,0.63
2022-11-21T04:47:05.261Z,0.47
2022-11-21T04:49:36.117Z,0.45
2022-11-21T04:52:06.342Z,0.57
2022-11-21T04:54:36.814Z,0.40
2022-11-21T04:57:07.061Z,0.30
2022-11-21T04:59:37.326Z,0.52
2022-11-21T05:02:07.583Z,0.40
2022-11-21T05:04:37.817Z,0.40
2022-11-21T05:07:08.592Z,0.40
2022-11-21T05:09:38.901Z,0.45
2022-11-21T05:12:27.426Z,0.45
2022-11-21T05:14:57.860Z,0.40
2022-11-21T05:17:29.640Z,0.30
2022-11-21T05:19:59.909Z,0.50
2022-11-21T05:22:30.312Z,0.52
2022-11-21T05:25:00.578Z,0.45
2022-11-21T05:27:30.785Z,0.50
2022-11-21T05:30:01.018Z,0.35
2022-11-21T05:32:31.218Z,0.32
2022-11-21T05:35:01.478Z,0.50
2022-11-21T05:37:31.725Z,0.52
2022-11-21T05:40:02.158Z,0.30
2022-11-21T05:42:50.185Z,0.40
2022-11-21T05:45:20.701Z,0.50
2022-11-21T05:47:51.555Z,0.30
2022-11-21T05:50:21.889Z,0.30
2022-11-21T05:52:52.386Z,0.52
2022-11-21T05:55:22.609Z,0.60
2022-11-21T05:57:52.841Z,0.50
2022-11-21T06:00:23.231Z,0.40
2022-11-21T06:03:11.274Z,0.50
2022-11-21T06:05:41.586Z,0.40
2022-11-21T06:08:12.711Z,0.30
2022-11-21T06:10:42.948Z,0.55
2022-11-21T06:13:23.760Z,0.40
2022-11-21T06:16:14.436Z,0.40
2022-11-21T06:18:53.837Z,0.30
2022-11-21T06:21:29.927Z,0.50
2022-11-21T06:24:01.546Z,0.40
2022-11-21T06:26:31.900Z,0.40
2022-11-21T06:29:02.168Z,0.55
2022-11-21T06:31:33.546Z,0.30
2022-11-21T06:34:03.874Z,0.32
2022-11-21T06:36:34.075Z,0.30
2022-11-21T06:39:04.483Z,0.47
2022-11-21T06:41:34.752Z,0.52
2022-11-21T06:44:04.999Z,0.40
2022-11-21T06:46:35.172Z,0.40
2022-11-21T06:49:05.437Z,0.38
2022-11-21T06:51:35.771Z,0.55
2022-11-21T06:54:05.988Z,0.68
2022-11-21T06:56:36.192Z,1.13
2022-11-21T06:59:06.401Z,0.55
2022-11-21T07:01:36.721Z,0.50
2022-11-21T07:04:07.266Z,0.50
2022-11-21T07:06:37.903Z,0.40
2022-11-21T07:12:18.206Z,0.50
2022-11-21T07:14:48.494Z,0.40
2022-11-21T07:17:18.846Z,0.43
2022-11-21T07:19:50.045Z,0.40
2022-11-21T07:22:20.454Z,0.45
2022-11-21T07:24:50.728Z,0.35
2022-11-21T07:27:21.113Z,0.38
2022-11-21T07:29:51.609Z,0.65
2022-11-21T07:32:22.062Z,0.50
2022-11-21T07:34:52.359Z,0.50
2022-11-21T07:37:22.701Z,0.52
2022-11-21T07:39:52.953Z,0.63
2022-11-21T07:42:23.269Z,0.40
2022-11-21T07:44:53.571Z,0.45
2022-11-21T07:47:23.780Z,0.40
2022-11-21T07:49:54.085Z,0.40
2022-11-21T07:52:25.639Z,0.32
2022-11-21T07:54:55.994Z,0.50
2022-11-21T07:57:26.980Z,0.75
2022-11-21T07:59:57.384Z,0.57
2022-11-21T08:02:29.454Z,0.77
2022-11-21T08:05:00.614Z,0.40
2022-11-21T08:07:30.971Z,0.65
2022-11-21T08:10:01.571Z,0.70
2022-11-21T08:12:31.781Z,0.60
2022-11-21T08:15:02.335Z,0.50
2022-11-21T08:17:32.735Z,0.65
2022-11-21T08:20:03.657Z,0.82
2022-11-21T08:22:33.926Z,0.38
2022-11-21T08:25:04.086Z,0.50
2022-11-21T08:27:34.299Z,0.50
2022-11-21T08:30:04.640Z,0.30
2022-11-21T08:32:34.822Z,0.55
2022-11-21T08:35:05.649Z,0.57
2022-11-21T08:37:35.837Z,0.60
2022-11-21T08:40:06.868Z,0.57
2022-11-21T08:42:37.553Z,0.50
2022-11-21T08:45:12.139Z,0.22
2022-11-21T08:47:43.622Z,0.43
2022-11-21T08:50:14.480Z,0.38
2022-11-21T08:52:45.575Z,0.28
2022-11-21T08:55:16.210Z,0.52
2022-11-21T08:57:47.096Z,0.40
2022-11-21T09:00:19.287Z,0.40
2022-11-21T09:02:51.082Z,0.38
2022-11-21T09:05:22.155Z,0.20
2022-11-21T09:07:59.545Z,0.30
2022-11-21T09:10:31.340Z,0.38
2022-11-21T09:13:04.316Z,0.30
2022-11-21T09:15:52.358Z,0.30
2022-11-21T09:18:22.683Z,0.40
2022-11-21T09:20:53.318Z,0.30
2022-11-21T09:23:23.955Z,0.20
2022-11-21T09:25:54.467Z,0.38
2022-11-21T09:28:24.963Z,0.22
2022-11-21T09:30:55.381Z,0.40
2022-11-21T09:33:25.887Z,0.30
2022-11-21T09:35:56.313Z,0.30
2022-11-21T09:38:28.735Z,0.20
2022-11-21T09:41:38.904Z,0.40
2022-11-21T09:44:34.855Z,0.22
2022-11-21T09:47:27.966Z,0.20
2022-11-21T09:50:05.952Z,0.40
2022-11-21T09:52:47.103Z,0.55
2022-11-21T09:55:30.663Z,0.20
2022-11-21T09:58:06.404Z,0.20
2022-11-21T10:00:36.737Z,0.20
2022-11-21T10:03:07.033Z,0.30
2022-11-21T10:05:47.405Z,0.20
2022-11-21T10:08:41.620Z,0.30
2022-11-21T10:11:22.984Z,0.20
2022-11-21T10:14:05.423Z,0.10
2022-11-21T10:17:20.580Z,0.30
2022-11-21T10:20:05.836Z,0.40
2022-11-21T10:22:39.057Z,0.30
2022-11-21T10:25:24.021Z,0.20
2022-11-21T10:28:16.423Z,0.20
2022-11-21T10:30:48.311Z,0.68
2022-11-21T10:33:38.102Z,0.28
2022-11-21T10:36:28.736Z,0.10
2022-11-21T10:39:05.176Z,0.20
2022-11-21T10:42:14.447Z,0.20
2022-11-21T10:45:02.616Z,0.20
2022-11-21T10:47:39.501Z,0.43
2022-11-21T10:50:12.706Z,0.20
2022-11-21T10:52:52.589Z,0.30
2022-11-21T10:55:22.835Z,0.30
2022-11-21T10:57:56.648Z,0.40
2022-11-21T11:00:29.710Z,0.30
2022-11-21T11:03:02.053Z,0.20
2022-11-21T11:05:34.893Z,0.30
2022-11-21T11:08:12.260Z,0.40
2022-11-21T11:10:48.483Z,0.30
2022-11-21T11:13:45.675Z,0.25
2022-11-21T11:16:21.831Z,0.30
2022-11-21T11:19:12.158Z,0.28
2022-11-21T11:21:49.703Z,0.25
2022-11-21T11:24:22.281Z,0.30
2022-11-21T11:27:06.017Z,0.20
2022-11-21T11:29:51.331Z,0.35
2022-11-21T11:32:22.953Z,0.35
2022-11-21T11:34:53.441Z,0.40
2022-11-21T11:37:43.832Z,0.30
2022-11-21T11:40:40.055Z,0.30
2022-11-21T11:44:00.594Z,0.20
2022-11-21T11:47:20.577Z,0.20
2022-11-21T11:50:15.616Z,0.40
2022-11-21T11:52:47.057Z,0.30
2022-11-21T11:55:40.683Z,0.38
2022-11-21T11:58:30.007Z,0.20
2022-11-21T12:01:08.177Z,0.40
2022-11-21T12:03:50.006Z,0.40
2022-11-21T12:09:49.586Z,0.50
2022-11-21T12:12:48.043Z,0.40
2022-11-21T12:15:42.087Z,0.65
2022-11-21T12:18:24.588Z,0.30
2022-11-21T12:21:03.764Z,0.40
2022-11-21T12:23:43.164Z,0.50
2022-11-21T12:26:39.583Z,0.50
2022-11-21T12:29:39.888Z,0.52
2022-11-21T12:32:30.855Z,0.20
2022-11-21T12:35:22.683Z,0.50
2022-11-21T12:38:44.593Z,0.70
2022-11-21T12:41:36.503Z,0.55
2022-11-21T12:44:35.638Z,0.40
2022-11-21T12:47:29.111Z,0.40
2022-11-21T12:50:27.789Z,0.70
2022-11-21T12:53:25.326Z,0.40
2022-11-21T12:56:03.138Z,0.70
2022-11-21T12:58:44.894Z,0.40
2022-11-21T13:01:38.856Z,0.60
2022-11-21T13:04:16.511Z,0.98
2022-11-21T13:06:50.604Z,0.80
2022-11-21T13:09:24.513Z,1.23
2022-11-21T13:12:03.562Z,1.30
2022-11-21T13:14:55.353Z,2.00
2022-11-21T13:17:28.761Z,1.52
2022-11-21T13:20:16.567Z,1.27
2022-11-21T13:22:47.181Z,1.30
2022-11-21T13:25:36.125Z,1.42
2022-11-21T13:28:21.267Z,1.20
2022-11-21T13:30:54.381Z,1.60
2022-11-21T13:33:40.059Z,1.42
2022-11-21T13:36:36.808Z,1.83
2022-11-21T13:39:06.927Z,1.63
2022-11-21T13:41:58.001Z,1.50
2022-11-21T13:44:34.555Z,1.60
2022-11-21T13:47:11.928Z,2.00
2022-11-21T13:49:47.221Z,1.40
2022-11-21T13:52:29.335Z,1.58
2022-11-21T13:55:23.358Z,1.17
2022-11-21T13:58:25.221Z,1.80
2022-11-21T14:01:17.189Z,1.52
2022-11-21T14:04:28.488Z,2.25
2022-11-21T14:07:18.547Z,1.40
2022-11-21T14:09:57.933Z,1.73
2022-11-21T14:12:44.369Z,1.90
2022-11-21T14:15:23.937Z,1.63
2022-11-21T14:18:00.229Z,1.25
2022-11-21T14:20:31.893Z,1.45
2022-11-21T14:23:17.220Z,1.30
2022-11-21T14:26:04.767Z,1.40
2022-11-21T14:28:38.285Z,1.45
2022-11-21T14:31:11.571Z,1.55
2022-11-21T14:33:47.254Z,1.20
2022-11-21T14:36:18.939Z,1.52
2022-11-21T14:39:07.685Z,1.70
2022-11-21T14:41:41.785Z,1.33
2022-11-21T14:44:11.989Z,1.58
2022-11-21T14:46:44.283Z,1.30
2022-11-21T14:49:20.428Z,1.35
2022-11-21T14:52:01.534Z,1.50
2022-11-21T14:55:28.544Z,1.33
2022-11-21T14:57:48.147Z,1.08
2022-11-21T15:00:58.539Z,1.00
2022-11-21T15:03:26.032Z,1.40
2022-11-21T15:06:08.698Z,1.25
2022-11-21T15:11:52.825Z,1.20
2022-11-21T15:14:32.183Z,0.98
2022-11-21T15:17:05.893Z,1.48
2022-11-21T15:19:36.224Z,0.90
2022-11-21T15:22:06.533Z,0.88
2022-11-21T15:24:47.179Z,1.20
2022-11-21T15:27:29.627Z,0.90
2022-11-21T15:30:18.080Z,1.58
2022-11-21T15:33:08.202Z,0.95
2022-11-21T15:35:47.571Z,0.80
2022-11-21T15:38:42.817Z,0.77
2022-11-21T15:41:26.995Z,0.95
2022-11-21T15:44:24.728Z,0.60
2022-11-21T15:46:55.228Z,0.68
2022-11-21T15:49:33.018Z,0.90
2022-11-21T15:52:09.030Z,0.75
2022-11-21T15:54:39.984Z,1.00
2022-11-21T15:57:12.464Z,1.02
2022-11-21T15:59:43.130Z,0.90
2022-11-21T16:02:16.354Z,0.70
2022-11-21T16:04:47.329Z,1.02
2022-11-21T16:07:18.686Z,0.80
2022-11-21T16:09:49.159Z,0.90
2022-11-21T16:12:19.711Z,0.82
2022-11-21T16:14:50.008Z,1.00
2022-11-21T16:17:20.600Z,0.70
2022-11-21T16:19:50.953Z,0.65
2022-11-21T16:22:21.625Z,0.80
2022-11-21T16:24:51.878Z,1.08
2022-11-21T16:27:22.171Z,0.80
2022-11-21T16:29:52.440Z,0.82
2022-11-21T16:32:22.676Z,0.45
2022-11-21T16:34:53.563Z,0.50
2022-11-21T16:37:23.973Z,0.80
2022-11-21T16:39:54.116Z,0.63
2022-11-21T16:42:24.381Z,0.57
2022-11-21T16:44:54.660Z,0.50
2022-11-21T16:47:24.933Z,0.68
2022-11-21T16:49:55.170Z,0.82
2022-11-21T16:52:25.367Z,0.70
2022-11-21T16:54:55.621Z,0.70
2022-11-21T16:57:25.819Z,0.73
2022-11-21T16:59:57.755Z,0.60
2022-11-21T17:02:29.446Z,0.63
2022-11-21T17:04:59.787Z,0.40
2022-11-21T17:07:30.000Z,0.50
2022-11-21T17:10:00.223Z,0.45
2022-11-21T17:12:30.414Z,0.47
2022-11-21T17:15:00.644Z,0.50
2022-11-21T17:17:30.872Z,0.45
2022-11-21T17:20:01.120Z,0.60
2022-11-21T17:22:31.330Z,0.47
2022-11-21T17:25:01.630Z,0.43
2022-11-21T17:27:31.939Z,0.40
2022-11-21T17:30:02.296Z,0.50
2022-11-21T17:32:32.753Z,0.40
2022-11-21T17:35:03.053Z,0.45
2022-11-21T17:37:33.338Z,0.55
2022-11-21T17:40:03.603Z,0.57
2022-11-21T17:42:33.843Z,0.40
2022-11-21T17:45:04.044Z,0.40
2022-11-21T17:47:36.542Z,0.47
2022-11-21T17:50:06.964Z,0.38
2022-11-21T17:52:37.454Z,0.50
2022-11-21T17:55:08.388Z,0.50
2022-11-21T17:57:38.582Z,0.30
2022-11-21T18:00:12.868Z,0.40
2022-11-21T18:02:43.331Z,0.40
2022-11-21T18:05:13.674Z,0.55
2022-11-21T18:07:44.320Z,0.32
2022-11-21T18:10:41.370Z,0.40
2022-11-21T18:13:04.897Z,0.50
2022-11-21T18:15:36.652Z,0.50
2022-11-21T18:18:06.938Z,0.40
2022-11-21T18:20:37.233Z,0.50
2022-11-21T18:23:07.413Z,0.40
2022-11-21T18:25:41.324Z,0.40
2022-11-21T18:28:11.696Z,0.30
2022-11-21T18:30:41.881Z,0.30
2022-11-21T18:33:16.057Z,0.30
2022-11-21T18:35:48.987Z,0.50
2022-11-21T18:38:45.967Z,0.50
2022-11-21T18:41:13.033Z,0.40
2022-11-21T18:43:45.069Z,0.60
2022-11-21T18:46:16.644Z,0.32
2022-11-21T18:49:02.076Z,0.40
2022-11-21T18:51:35.828Z,0.40
2022-11-21T18:54:11.979Z,0.50
2022-11-21T18:56:42.740Z,0.43
2022-11-21T18:59:13.016Z,0.30
2022-11-21T19:01:43.621Z,0.25
2022-11-21T19:04:13.962Z,0.32
2022-11-21T19:06:44.326Z,0.50
2022-11-21T19:09:14.624Z,0.30
2022-11-21T19:11:45.122Z,0.40
2022-11-21T19:14:15.442Z,0.40
2022-11-21T19:16:45.696Z,0.35
2022-11-21T19:22:07.902Z,0.20
2022-11-21T19:24:38.319Z,0.40
2022-11-21T19:27:08.886Z,0.35
2022-11-21T19:29:39.076Z,0.30
2022-11-21T19:32:09.755Z,0.20
2022-11-21T19:34:39.865Z,0.22
2022-11-21T19:37:10.458Z,0.70
2022-11-21T19:39:40.721Z,0.22
2022-11-21T19:42:10.891Z,0.40
2022-11-21T19:44:41.109Z,0.30
2022-11-21T19:47:12.387Z,0.35
2022-11-21T19:49:42.652Z,0.30
2022-11-21T19:52:12.841Z,0.20
2022-11-21T19:54:43.043Z,0.30
2022-11-21T19:57:14.158Z,0.20
2022-11-21T19:59:46.833Z,0.20
2022-11-21T20:02:23.110Z,0.30
2022-11-21T20:04:55.842Z,0.50
2022-11-21T20:07:26.883Z,0.20
2022-11-21T20:09:57.121Z,0.28
2022-11-21T20:12:27.405Z,0.40
2022-11-21T20:14:58.082Z,0.30
2022-11-21T20:17:28.347Z,0.20
2022-11-21T20:20:00.388Z,0.20
2022-11-21T20:22:31.356Z,0.20
2022-11-21T20:25:01.922Z,0.30
2022-11-21T20:27:33.611Z,0.40
2022-11-21T20:30:04.091Z,0.20
2022-11-21T20:32:37.534Z,0.20
2022-11-21T20:35:08.142Z,0.30
2022-11-21T20:37:38.593Z,0.10
2022-11-21T20:40:09.391Z,0.30
2022-11-21T20:42:39.645Z,0.20
2022-11-21T20:48:03.218Z,0.22
2022-11-21T20:51:20.900Z,0.20
2022-11-21T20:53:50.732Z,0.30
2022-11-21T20:56:20.611Z,0.30
2022-11-21T20:58:51.338Z,0.25
2022-11-21T21:01:23.104Z,0.20
2022-11-21T21:03:53.366Z,0.70
2022-11-21T21:06:25.704Z,0.60
2022-11-21T21:08:56.190Z,0.30
2022-11-21T21:14:18.180Z,0.30
2022-11-21T21:16:48.385Z,0.30
2022-11-21T21:19:19.080Z,0.30
2022-11-21T21:21:49.270Z,0.25
2022-11-21T21:24:20.092Z,0.30
2022-11-21T21:26:51.572Z,0.30
2022-11-21T21:29:23.327Z,0.50
2022-11-21T21:31:53.564Z,0.60
2022-11-21T21:34:24.951Z,0.45
2022-11-21T21:36:55.113Z,0.55
2022-11-21T21:39:26.284Z,0.50
2022-11-21T21:41:56.447Z,0.60
2022-11-21T21:44:32.778Z,0.57
2022-11-21T21:47:03.715Z,0.40
2022-11-21T21:49:34.022Z,0.60
2022-11-21T21:52:04.826Z,0.38
2022-11-21T21:54:35.317Z,0.60
2022-11-21T21:57:06.195Z,0.68
2022-11-21T21:59:36.753Z,0.57
2022-11-21T22:02:07.670Z,0.50
2022-11-21T22:04:38.260Z,0.50
2022-11-21T22:07:10.388Z,0.55
2022-11-21T22:09:41.136Z,0.47
2022-11-21T22:12:11.536Z,0.73
2022-11-21T22:14:42.112Z,0.60
2022-11-21T22:17:12.382Z,0.90
2022-11-21T22:19:42.684Z,0.32
2022-11-21T22:22:13.063Z,0.20
2022-11-21T22:24:43.779Z,0.40
2022-11-21T22:27:14.081Z,0.60
2022-11-21T22:29:44.281Z,0.50
2022-11-21T22:32:19.329Z,0.40
2022-11-21T22:34:50.071Z,0.40
2022-11-21T22:37:20.359Z,0.52
2022-11-21T22:39:50.898Z,0.63
2022-11-21T22:42:21.152Z,0.63
2022-11-21T22:44:51.510Z,0.40
2022-11-21T22:47:22.982Z,0.57
2022-11-21T22:49:53.452Z,0.30
2022-11-21T22:52:23.744Z,0.20
2022-11-21T22:54:54.129Z,0.40
2022-11-21T22:57:24.628Z,0.40
2022-11-21T22:59:55.262Z,0.40
2022-11-21T23:02:25.475Z,0.40
2022-11-21T23:04:55.845Z,0.60
2022-11-21T23:07:26.117Z,0.38
2022-11-21T23:09:56.518Z,0.55
2022-11-21T23:12:27.585Z,0.38
2022-11-21T23:14:58.108Z,0.38
2022-11-21T23:17:28.353Z,0.80
2022-11-21T23:19:58.552Z,0.60
2022-11-21T23:22:28.812Z,0.47
2022-11-21T23:24:59.066Z,0.73
2022-11-21T23:27:29.330Z,0.60
2022-11-21T23:29:59.520Z,0.55
2022-11-21T23:32:29.810Z,0.43
2022-11-21T23:35:00.037Z,0.40
2022-11-21T23:37:30.214Z,0.45
2022-11-21T23:40:00.456Z,0.40
2022-11-21T23:42:30.694Z,0.25
2022-11-21T23:45:01.806Z,0.40
2022-11-21T23:47:32.076Z,0.55
2022-11-21T23:50:02.239Z,0.40
2022-11-21T23:52:32.374Z,0.50
2022-11-21T23:55:02.774Z,0.40
2022-11-21T23:57:32.994Z,0.40
